Time;durP1;ratioP1;P1;durP2;ratioP2;P2;SDS_P1;SDS_P2;PMS_P1;PMS_P2;Temp;Humidity;BMP_temperature;BMP_pressure;BME280_temperature;BME280_humidity;BME280_pressure;Samples;Min_cycle;Max_cycle;Signal;HPM_P1;HPM_P2
2022/06/05 00:00:15;;;;;;;5.30;4.50;;;19.00;99.90;;;;;;5077493;28;20228;-54
2022/06/05 00:03:19;;;;;;;8.63;4.87;;;18.80;99.90;;;;;;5078832;28;20202;-52
2022/06/05 00:06:05;;;;;;;5.83;4.53;;;19.00;99.90;;;;;;5077732;28;20720;-52
2022/06/05 00:08:52;;;;;;;5.33;4.13;;;18.90;99.90;;;;;;5085015;28;20199;-52
2022/06/05 00:11:21;;;;;;;8.37;4.40;;;18.90;99.90;;;;;;5082365;28;20219;-52
2022/06/05 00:13:55;;;;;;;4.37;3.97;;;19.00;99.90;;;;;;5079640;28;20714;-52
2022/06/05 00:16:28;;;;;;;4.67;4.23;;;19.00;99.90;;;;;;5078622;28;20191;-53
2022/06/05 00:18:55;;;;;;;5.50;4.33;;;19.00;99.90;;;;;;5077367;28;20194;-52
2022/06/05 00:21:23;;;;;;;8.53;4.43;;;18.90;99.90;;;;;;5061892;28;20198;-50
2022/06/05 00:23:51;;;;;;;7.13;4.33;;;18.90;99.90;;;;;;5080463;28;20295;-49
2022/06/05 00:26:23;;;;;;;7.03;5.17;;;18.90;99.90;;;;;;5078906;28;20486;-50
2022/06/05 00:29:24;;;;;;;6.77;4.47;;;18.90;99.90;;;;;;5081535;28;20348;-50
2022/06/05 00:32:02;;;;;;;8.27;4.50;;;18.70;99.90;;;;;;5076460;28;20733;-52
2022/06/05 00:34:29;;;;;;;6.10;4.67;;;18.80;99.90;;;;;;5071620;28;21044;-52
2022/06/05 00:37:19;;;;;;;5.77;4.40;;;18.90;99.90;;;;;;5073483;28;20619;-52
2022/06/05 00:39:59;;;;;;;5.00;4.50;;;18.80;99.90;;;;;;5078534;28;20255;-53
2022/06/05 00:42:29;;;;;;;5.50;4.70;;;18.70;99.90;;;;;;5075686;28;20669;-52
2022/06/05 00:44:59;;;;;;;5.93;4.53;;;18.80;99.90;;;;;;5079545;28;20202;-51
2022/06/05 00:47:30;;;;;;;7.17;4.37;;;18.70;99.90;;;;;;5077420;28;20310;-52
2022/06/05 00:50:30;;;;;;;5.47;4.20;;;18.90;99.90;;;;;;5071280;28;20322;-52
2022/06/05 00:53:00;;;;;;;9.33;4.90;;;18.90;99.90;;;;;;5072359;28;20314;-53
2022/06/05 00:55:39;;;;;;;6.43;4.87;;;18.80;99.90;;;;;;5072297;28;20230;-52
2022/06/05 00:58:07;;;;;;;5.10;4.60;;;18.80;99.90;;;;;;5072681;28;20285;-52
2022/06/05 01:00:38;;;;;;;5.73;4.50;;;18.70;99.90;;;;;;5076361;28;20286;-53
2022/06/05 01:03:09;;;;;;;8.57;5.13;;;18.70;99.90;;;;;;5078957;28;20297;-54
2022/06/05 01:05:37;;;;;;;5.77;4.47;;;18.80;99.90;;;;;;5075485;28;20207;-53
2022/06/05 01:08:05;;;;;;;8.87;6.00;;;18.70;99.90;;;;;;5077291;28;20209;-52
2022/06/05 01:10:43;;;;;;;9.67;5.20;;;18.60;99.90;;;;;;5075409;28;20289;-53
2022/06/05 01:13:21;;;;;;;6.10;5.07;;;18.60;99.90;;;;;;5074059;28;20221;-50
2022/06/05 01:16:06;;;;;;;5.50;4.83;;;18.60;99.90;;;;;;5074594;28;20201;-52
2022/06/05 01:18:49;;;;;;;7.77;5.20;;;18.60;99.90;;;;;;5075659;28;20209;-52
2022/06/05 01:21:38;;;;;;;7.10;4.77;;;18.60;99.90;;;;;;5078857;28;20289;-52
2022/06/05 01:24:43;;;;;;;6.87;4.63;;;18.60;99.90;;;;;;5076648;28;20746;-52
2022/06/05 01:27:14;;;;;;;6.10;5.07;;;18.70;99.90;;;;;;5067364;28;20202;-52
2022/06/05 01:29:49;;;;;;;6.70;4.97;;;18.70;99.90;;;;;;5076465;28;20230;-53
2022/06/05 01:32:44;;;;;;;8.63;5.30;;;18.70;99.90;;;;;;5077994;28;20308;-51
2022/06/05 01:35:19;;;;;;;7.23;4.90;;;18.60;99.90;;;;;;5074385;28;20646;-53
2022/06/05 01:37:59;;;;;;;6.13;4.83;;;18.60;99.90;;;;;;5072268;28;20661;-53
2022/06/05 01:40:31;;;;;;;6.03;4.73;;;18.60;99.90;;;;;;5079400;28;20279;-53
2022/06/05 01:43:05;;;;;;;7.10;5.17;;;18.70;99.90;;;;;;5075141;28;20290;-52
2022/06/05 01:45:51;;;;;;;7.03;4.67;;;18.40;99.90;;;;;;5077571;28;20195;-52
2022/06/05 01:48:23;;;;;;;6.47;5.03;;;18.50;99.90;;;;;;5075743;28;20306;-53
2022/06/05 01:51:03;;;;;;;8.77;5.50;;;18.50;99.90;;;;;;5075696;28;20321;-52
2022/06/05 01:53:36;;;;;;;6.30;5.27;;;18.20;99.90;;;;;;5071054;28;20306;-52
2022/06/05 01:56:15;;;;;;;7.40;5.30;;;18.30;99.90;;;;;;5076402;28;20290;-53
2022/06/05 01:58:46;;;;;;;8.13;5.40;;;18.50;99.90;;;;;;5078130;28;20225;-53
2022/06/05 02:01:30;;;;;;;9.23;5.37;;;18.50;99.90;;;;;;5074054;28;20659;-52
2022/06/05 02:04:06;;;;;;;7.80;4.97;;;18.50;99.90;;;;;;5075558;28;20649;-52
2022/06/05 02:06:38;;;;;;;8.60;5.33;;;18.20;99.90;;;;;;5074700;28;20665;-53
2022/06/05 02:09:35;;;;;;;7.20;5.23;;;18.30;99.90;;;;;;5076536;28;20667;-53
2022/06/05 02:12:04;;;;;;;5.73;5.10;;;18.40;99.90;;;;;;5076475;28;20283;-53
2022/06/05 02:14:31;;;;;;;9.43;5.23;;;18.50;99.90;;;;;;5073712;28;20197;-51
2022/06/05 02:16:59;;;;;;;9.73;5.37;;;18.50;99.90;;;;;;5074271;28;20332;-52
2022/06/05 02:19:26;;;;;;;6.27;5.20;;;18.50;99.90;;;;;;5076774;28;20222;-52
2022/06/05 02:22:01;;;;;;;6.10;5.03;;;18.40;99.90;;;;;;5074812;28;20340;-53
2022/06/05 02:24:28;;;;;;;9.83;5.63;;;18.60;99.90;;;;;;5076216;28;20201;-51
2022/06/05 02:26:59;;;;;;;8.33;5.70;;;18.50;99.90;;;;;;5077797;28;20294;-52
2022/06/05 02:29:26;;;;;;;6.70;5.10;;;18.40;99.90;;;;;;5076643;28;20194;-51
2022/06/05 02:31:59;;;;;;;7.33;5.50;;;18.30;99.90;;;;;;5078464;28;20576;-52
2022/06/05 02:34:49;;;;;;;6.53;5.33;;;18.50;99.90;;;;;;5082903;28;20301;-52
2022/06/05 02:37:37;;;;;;;6.23;5.20;;;18.50;99.90;;;;;;5078650;28;20631;-53
2022/06/05 02:40:34;;;;;;;7.10;4.87;;;18.50;99.90;;;;;;5080437;28;20694;-53
2022/06/05 02:43:09;;;;;;;7.30;5.50;;;18.50;99.90;;;;;;5075980;28;20283;-52
2022/06/05 02:45:57;;;;;;;9.13;5.27;;;18.50;99.90;;;;;;5077339;28;20288;-53
2022/06/05 02:48:42;;;;;;;7.33;5.17;;;18.30;99.90;;;;;;5063759;28;20565;-53
2022/06/05 02:51:17;;;;;;;8.07;5.47;;;18.20;99.90;;;;;;5074881;28;20228;-53
2022/06/05 02:53:56;;;;;;;6.70;5.27;;;18.30;99.90;;;;;;5075452;28;20305;-51
2022/06/05 02:56:24;;;;;;;6.70;5.27;;;18.10;99.90;;;;;;5075006;28;20658;-51
2022/06/05 02:58:53;;;;;;;7.27;5.53;;;18.00;99.90;;;;;;5075507;28;20206;-53
2022/06/05 03:04:09;;;;;;;5.70;4.93;;;17.80;99.90;;;;;;5076368;28;20203;-51
2022/06/05 03:06:42;;;;;;;6.47;5.17;;;17.70;99.90;;;;;;5074250;28;20209;-53
2022/06/05 03:09:09;;;;;;;7.57;5.10;;;17.80;99.90;;;;;;5078167;28;20279;-51
2022/06/05 03:11:40;;;;;;;11.17;5.77;;;17.70;99.90;;;;;;5074535;28;20669;-52
2022/06/05 03:14:06;;;;;;;8.17;6.10;;;17.70;99.90;;;;;;5074839;28;20937;-52
2022/06/05 03:16:34;;;;;;;8.47;6.60;;;17.70;99.90;;;;;;5071360;28;20209;-51
2022/06/05 03:19:02;;;;;;;7.63;6.47;;;17.50;99.90;;;;;;5073735;28;20199;-53
2022/06/05 03:21:33;;;;;;;9.53;6.20;;;17.50;99.90;;;;;;5077663;28;20293;-52
2022/06/05 03:24:01;;;;;;;8.37;6.33;;;17.20;99.90;;;;;;5072180;28;20203;-52
2022/06/05 03:26:29;;;;;;;9.83;6.40;;;17.20;99.90;;;;;;5073621;28;20203;-54
2022/06/05 03:28:55;;;;;;;7.53;6.20;;;17.10;99.90;;;;;;5076966;28;20289;-51
2022/06/05 03:31:22;;;;;;;9.00;6.53;;;17.10;99.90;;;;;;5073381;28;20215;-51
2022/06/05 03:33:49;;;;;;;6.97;6.23;;;17.10;99.90;;;;;;5082875;28;20518;-52
2022/06/05 03:36:17;;;;;;;8.70;6.30;;;17.00;99.90;;;;;;5081354;28;20671;-53
2022/06/05 03:38:44;;;;;;;9.10;7.07;;;16.90;99.90;;;;;;5081057;28;20554;-52
2022/06/05 03:41:15;;;;;;;8.13;7.03;;;16.90;99.90;;;;;;5078565;28;20265;-52
2022/06/05 03:43:43;;;;;;;8.47;6.67;;;16.80;99.90;;;;;;5080455;28;20642;-52
2022/06/05 03:46:13;;;;;;;10.03;7.20;;;16.80;99.90;;;;;;5079787;28;20557;-52
2022/06/05 03:48:40;;;;;;;8.30;6.53;;;16.80;99.90;;;;;;5077666;28;20308;-51
2022/06/05 03:51:16;;;;;;;11.33;6.40;;;16.90;99.90;;;;;;5079941;28;20226;-52
2022/06/05 03:53:43;;;;;;;9.10;6.13;;;17.10;99.90;;;;;;5076942;28;20965;-52
2022/06/05 03:56:17;;;;;;;8.57;6.83;;;17.00;99.90;;;;;;5078469;28;20199;-52
2022/06/05 03:58:44;;;;;;;9.37;6.90;;;17.10;99.90;;;;;;5078693;28;20248;-52
2022/06/05 04:01:13;;;;;;;9.00;6.77;;;17.30;99.90;;;;;;5078423;28;20198;-52
2022/06/05 04:03:40;;;;;;;8.73;6.60;;;17.30;99.90;;;;;;5077572;28;20221;-53
2022/06/05 04:06:16;;;;;;;10.30;6.80;;;17.20;99.90;;;;;;5079816;28;20203;-53
2022/06/05 04:08:43;;;;;;;9.70;7.00;;;17.10;99.90;;;;;;5080170;28;20540;-52
2022/06/05 04:11:13;;;;;;;11.53;6.87;;;17.00;99.90;;;;;;5076125;28;20294;-53
2022/06/05 04:13:40;;;;;;;11.27;6.97;;;16.90;99.90;;;;;;5080000;28;20335;-51
2022/06/05 04:16:13;;;;;;;9.07;6.87;;;16.90;99.90;;;;;;5075772;28;20191;-52
2022/06/05 04:18:40;;;;;;;9.67;6.70;;;16.80;99.90;;;;;;5074575;28;20199;-52
2022/06/05 04:21:09;;;;;;;9.23;6.83;;;16.80;99.90;;;;;;5077741;28;20638;-52
2022/06/05 04:23:36;;;;;;;11.23;6.97;;;16.70;99.90;;;;;;5076138;28;20230;-52
2022/06/05 04:26:09;;;;;;;8.80;7.13;;;16.70;99.90;;;;;;5073397;28;20207;-52
2022/06/05 04:28:37;;;;;;;12.43;7.23;;;16.60;99.90;;;;;;5078973;28;20252;-52
2022/06/05 04:31:04;;;;;;;8.50;6.90;;;16.70;99.90;;;;;;5079220;28;20218;-52
2022/06/05 04:33:34;;;;;;;13.80;7.87;;;16.70;99.90;;;;;;5080967;28;20389;-51
2022/06/05 04:36:01;;;;;;;10.43;7.67;;;16.60;99.90;;;;;;5055380;28;20197;-52
2022/06/05 04:38:28;;;;;;;11.50;8.23;;;16.80;99.90;;;;;;5076736;28;20214;-52
2022/06/05 04:40:54;;;;;;;12.67;7.13;;;16.70;99.90;;;;;;5077502;28;20207;-51
2022/06/05 04:43:21;;;;;;;11.80;7.73;;;16.50;99.90;;;;;;5077828;28;20256;-51
2022/06/05 04:45:48;;;;;;;15.57;7.50;;;16.50;99.90;;;;;;5075854;28;20210;-52
2022/06/05 04:48:16;;;;;;;9.03;7.33;;;16.70;99.90;;;;;;5076482;28;20906;-53
2022/06/05 04:50:42;;;;;;;11.50;8.03;;;16.50;99.90;;;;;;5073720;28;20272;-50
2022/06/05 04:53:09;;;;;;;11.07;8.13;;;16.70;99.90;;;;;;5077055;28;20221;-51
2022/06/05 04:55:37;;;;;;;12.77;7.77;;;16.70;99.90;;;;;;5080595;28;20198;-53
2022/06/05 04:58:04;;;;;;;10.53;7.53;;;16.80;99.90;;;;;;5073410;28;20283;-52
2022/06/05 05:00:32;;;;;;;10.87;7.20;;;16.90;99.90;;;;;;5075142;28;20915;-51
2022/06/05 05:02:59;;;;;;;9.53;7.57;;;16.80;99.90;;;;;;5081267;28;20232;-52
2022/06/05 05:05:26;;;;;;;10.47;7.90;;;16.80;99.90;;;;;;5080229;28;20199;-52
2022/06/05 05:07:53;;;;;;;9.93;7.80;;;16.80;99.90;;;;;;5060170;28;20728;-52
2022/06/05 05:10:19;;;;;;;8.43;7.13;;;16.80;99.90;;;;;;5064106;28;20651;-53
2022/06/05 05:12:46;;;;;;;10.73;7.87;;;16.80;99.90;;;;;;5073365;28;20244;-52
2022/06/05 05:15:13;;;;;;;9.60;7.90;;;16.90;99.90;;;;;;5075846;28;20294;-52
2022/06/05 05:17:40;;;;;;;13.30;7.00;;;16.90;99.90;;;;;;5076720;28;20607;-51
2022/06/05 05:20:08;;;;;;;8.70;7.63;;;16.80;99.90;;;;;;5076139;28;21302;-51
2022/06/05 05:22:37;;;;;;;8.10;6.70;;;16.90;99.90;;;;;;5075943;28;20287;-53
2022/06/05 05:25:07;;;;;;;9.07;6.87;;;16.90;99.90;;;;;;5080130;28;20337;-52
2022/06/05 05:27:35;;;;;;;10.83;7.67;;;16.90;99.90;;;;;;5070877;28;20310;-53
2022/06/05 05:30:04;;;;;;;10.57;7.17;;;16.90;99.90;;;;;;5081324;28;20285;-52
2022/06/05 05:32:31;;;;;;;12.40;8.30;;;16.90;99.90;;;;;;5074851;28;20282;-51
2022/06/05 05:34:57;;;;;;;9.80;6.87;;;16.90;99.90;;;;;;5076520;28;20297;-53
2022/06/05 05:37:24;;;;;;;9.73;7.90;;;16.90;99.90;;;;;;5074807;28;20992;-53
2022/06/05 05:42:37;;;;;;;9.60;7.67;;;16.90;99.90;;;;;;5074081;28;20260;-52
2022/06/05 05:45:05;;;;;;;9.50;7.53;;;17.00;99.90;;;;;;5074680;28;20472;-52
2022/06/05 05:47:33;;;;;;;8.47;6.90;;;17.10;99.90;;;;;;5076606;28;20210;-52
2022/06/05 05:50:05;;;;;;;10.43;7.30;;;17.10;99.90;;;;;;5077488;28;20802;-51
2022/06/05 05:52:32;;;;;;;7.43;6.67;;;17.20;99.90;;;;;;5057817;28;20216;-53
2022/06/05 05:54:59;;;;;;;8.30;6.77;;;17.20;99.90;;;;;;5074339;28;20302;-52
2022/06/05 05:57:27;;;;;;;11.10;7.57;;;17.20;99.90;;;;;;5073876;28;20209;-52
2022/06/05 05:59:54;;;;;;;14.23;7.87;;;17.20;99.90;;;;;;5074070;28;20191;-52
2022/06/05 06:02:22;;;;;;;9.17;6.80;;;17.20;99.90;;;;;;5072077;28;20711;-52
2022/06/05 06:04:51;;;;;;;9.13;7.30;;;17.20;99.90;;;;;;5077532;28;20620;-51
2022/06/05 06:07:19;;;;;;;9.30;7.30;;;17.20;99.90;;;;;;5074206;28;20702;-53
2022/06/05 06:09:46;;;;;;;10.30;6.63;;;17.10;99.90;;;;;;5076396;28;20208;-53
2022/06/05 06:12:21;;;;;;;9.03;7.27;;;17.10;99.90;;;;;;5076244;28;20209;-52
2022/06/05 06:14:48;;;;;;;8.53;7.13;;;17.30;99.90;;;;;;5074851;28;20250;-51
2022/06/05 06:17:16;;;;;;;9.83;7.10;;;17.40;99.90;;;;;;5077247;28;20331;-52
2022/06/05 06:19:42;;;;;;;8.90;6.83;;;17.40;99.90;;;;;;5075911;28;20196;-49
2022/06/05 06:22:09;;;;;;;10.83;7.03;;;17.40;99.90;;;;;;5073064;28;20301;-53
2022/06/05 06:24:36;;;;;;;7.63;6.83;;;17.40;99.90;;;;;;5078159;28;20317;-50
2022/06/05 06:27:04;;;;;;;8.30;6.80;;;17.30;99.90;;;;;;5071006;28;20762;-51
2022/06/05 06:29:31;;;;;;;8.30;7.33;;;17.40;99.90;;;;;;5074847;28;20612;-51
2022/06/05 06:31:57;;;;;;;8.90;7.13;;;17.60;99.90;;;;;;5078362;28;20201;-50
2022/06/05 06:34:24;;;;;;;10.00;8.00;;;17.60;99.90;;;;;;5078470;28;20639;-51
2022/06/05 06:36:51;;;;;;;8.67;7.43;;;17.50;99.90;;;;;;5077194;28;20198;-52
2022/06/05 06:39:19;;;;;;;9.80;7.37;;;17.40;99.90;;;;;;5078205;28;20200;-53
2022/06/05 06:41:47;;;;;;;12.73;7.53;;;17.40;99.90;;;;;;5055498;28;20211;-53
2022/06/05 06:44:15;;;;;;;9.40;6.87;;;17.50;99.90;;;;;;5075789;28;20797;-52
2022/06/05 06:46:42;;;;;;;10.23;7.20;;;17.60;99.90;;;;;;5080812;28;20199;-51
2022/06/05 06:49:09;;;;;;;10.10;7.87;;;17.70;99.90;;;;;;5078082;28;20263;-52
2022/06/05 06:51:36;;;;;;;12.33;7.00;;;17.80;99.90;;;;;;5074662;28;20293;-52
2022/06/05 06:54:03;;;;;;;8.60;6.40;;;17.80;99.90;;;;;;5059317;28;20300;-52
2022/06/05 06:56:32;;;;;;;10.03;7.60;;;17.80;99.90;;;;;;5073783;28;20200;-53
2022/06/05 06:59:00;;;;;;;10.43;7.90;;;17.90;99.90;;;;;;5073907;28;20269;-53
2022/06/05 07:01:27;;;;;;;8.03;6.77;;;17.90;99.90;;;;;;5077547;28;20670;-53
2022/06/05 07:03:54;;;;;;;10.27;7.50;;;17.90;99.90;;;;;;5075908;28;20259;-53
2022/06/05 07:06:21;;;;;;;7.80;6.67;;;18.00;99.90;;;;;;5077398;28;20602;-53
2022/06/05 07:08:49;;;;;;;8.10;7.30;;;18.10;99.90;;;;;;5078624;28;20259;-54
2022/06/05 07:11:17;;;;;;;7.93;7.03;;;18.20;99.90;;;;;;5062563;28;20208;-53
2022/06/05 07:13:51;;;;;;;9.13;6.57;;;18.20;99.90;;;;;;5079539;28;20238;-52
2022/06/05 07:16:18;;;;;;;8.13;7.33;;;18.30;99.90;;;;;;5064154;28;20202;-52
2022/06/05 07:18:46;;;;;;;7.87;7.07;;;18.40;99.90;;;;;;5078296;28;20199;-52
2022/06/05 07:21:31;;;;;;;10.87;7.50;;;18.30;99.90;;;;;;5086091;28;20650;-53
2022/06/05 07:23:58;;;;;;;8.27;7.00;;;18.50;99.90;;;;;;5075167;28;20333;-52
2022/06/05 07:26:30;;;;;;;8.20;7.20;;;18.70;99.90;;;;;;5077155;28;20224;-53
2022/06/05 07:28:58;;;;;;;8.13;7.13;;;18.80;99.90;;;;;;5080131;28;20279;-53
2022/06/05 07:31:29;;;;;;;8.70;7.03;;;18.80;99.90;;;;;;5086077;28;20597;-52
2022/06/05 07:33:58;;;;;;;10.37;6.73;;;18.90;99.90;;;;;;5082893;28;20212;-53
2022/06/05 07:36:26;;;;;;;7.43;6.73;;;19.00;99.90;;;;;;5075808;28;20674;-51
2022/06/05 07:38:55;;;;;;;7.77;6.97;;;19.20;99.90;;;;;;5075454;28;20249;-51
2022/06/05 07:41:26;;;;;;;7.90;6.80;;;19.40;99.90;;;;;;5082142;28;20667;-53
2022/06/05 07:43:53;;;;;;;9.03;7.20;;;19.50;99.90;;;;;;5077137;28;20289;-53
2022/06/05 07:46:21;;;;;;;8.30;7.50;;;19.60;99.90;;;;;;5079103;28;20678;-52
2022/06/05 07:48:49;;;;;;;8.53;6.70;;;19.60;99.90;;;;;;5072950;28;20211;-52
2022/06/05 07:54:27;;;;;;;8.63;6.60;;;19.90;99.90;;;;;;5072784;28;20379;-53
2022/06/05 07:57:06;;;;;;;8.20;6.90;;;20.20;99.90;;;;;;5077264;28;20293;-52
2022/06/05 07:59:38;;;;;;;7.63;6.80;;;20.40;99.90;;;;;;5076962;28;21276;-54
2022/06/05 08:02:09;;;;;;;8.00;6.27;;;20.50;99.90;;;;;;5076902;28;20603;-52
2022/06/05 08:04:37;;;;;;;8.23;7.43;;;20.50;99.90;;;;;;5077418;28;20638;-52
2022/06/05 08:07:06;;;;;;;10.60;6.93;;;20.60;99.90;;;;;;5075309;28;20602;-52
2022/06/05 08:09:35;;;;;;;7.67;6.97;;;20.50;99.90;;;;;;5077564;28;20292;-54
2022/06/05 08:12:02;;;;;;;8.13;6.13;;;20.70;99.90;;;;;;5076555;28;21466;-52
2022/06/05 08:14:32;;;;;;;7.97;6.70;;;20.80;99.90;;;;;;5076155;28;20226;-54
2022/06/05 08:16:59;;;;;;;7.37;6.50;;;20.90;99.90;;;;;;5060061;28;20217;-52
2022/06/05 08:19:31;;;;;;;7.50;6.40;;;21.10;99.90;;;;;;5079039;28;20609;-54
2022/06/05 08:21:59;;;;;;;7.40;6.67;;;21.30;99.90;;;;;;5074439;28;20694;-53
2022/06/05 08:24:26;;;;;;;8.87;7.50;;;21.50;99.90;;;;;;5079474;28;20313;-52
2022/06/05 08:26:52;;;;;;;7.87;7.03;;;21.40;99.90;;;;;;5073833;28;20531;-54
2022/06/05 08:29:20;;;;;;;10.13;7.00;;;21.60;99.90;;;;;;5057930;28;20301;-51
2022/06/05 08:31:47;;;;;;;7.97;7.23;;;22.00;99.90;;;;;;5079363;28;20280;-51
2022/06/05 08:34:14;;;;;;;9.03;7.27;;;22.20;99.90;;;;;;5083509;28;20205;-52
2022/06/05 08:36:42;;;;;;;8.33;7.53;;;22.00;99.90;;;;;;5066067;28;20614;-53
2022/06/05 08:42:20;;;;;;;7.83;7.20;;;21.90;99.90;;;;;;5078333;28;20540;-52
2022/06/05 08:44:52;;;;;;;10.47;7.60;;;21.80;99.90;;;;;;5081129;28;21629;-53
2022/06/05 08:47:27;;;;;;;9.77;7.83;;;21.80;99.90;;;;;;5079841;28;20603;-53
2022/06/05 08:50:13;;;;;;;9.17;8.33;;;21.70;99.90;;;;;;5079326;28;20238;-52
2022/06/05 08:53:04;;;;;;;8.93;8.03;;;21.70;99.90;;;;;;5080540;28;20273;-52
2022/06/05 08:55:38;;;;;;;9.67;7.93;;;21.70;99.90;;;;;;5070958;28;20211;-53
2022/06/05 08:58:14;;;;;;;8.07;7.27;;;21.80;99.90;;;;;;5075035;28;20281;-52
2022/06/05 09:00:50;;;;;;;9.67;8.47;;;21.90;99.90;;;;;;5080792;28;20686;-52
2022/06/05 09:03:23;;;;;;;9.20;8.27;;;22.00;99.90;;;;;;5071865;28;20293;-52
2022/06/05 09:06:01;;;;;;;9.73;8.83;;;22.00;99.90;;;;;;5070351;28;20203;-53
2022/06/05 09:08:36;;;;;;;9.60;8.67;;;21.90;99.90;;;;;;5079085;28;20226;-53
2022/06/05 09:11:14;;;;;;;9.17;8.37;;;21.70;99.90;;;;;;5070679;28;20987;-54
2022/06/05 09:14:05;;;;;;;9.70;8.80;;;21.70;99.90;;;;;;5075328;28;20203;-52
2022/06/05 09:16:40;;;;;;;9.27;8.40;;;21.60;99.90;;;;;;5074262;28;20260;-54
2022/06/05 09:19:10;;;;;;;13.50;8.77;;;21.70;99.90;;;;;;5072166;28;20652;-52
2022/06/05 09:21:45;;;;;;;9.20;8.30;;;21.60;99.90;;;;;;5059443;28;20686;-52
2022/06/05 09:24:31;;;;;;;9.10;8.17;;;21.60;99.90;;;;;;5074621;28;20301;-53
2022/06/05 09:27:01;;;;;;;9.27;8.37;;;21.70;99.90;;;;;;5073856;28;20574;-53
2022/06/05 09:29:46;;;;;;;9.53;8.50;;;21.70;99.90;;;;;;5066739;28;20212;-53
2022/06/05 09:32:35;;;;;;;10.70;9.10;;;21.70;99.90;;;;;;5074314;28;20396;-53
2022/06/05 09:35:15;;;;;;;10.80;8.40;;;21.50;99.90;;;;;;5074649;28;20731;-53
2022/06/05 09:37:52;;;;;;;9.57;8.60;;;21.60;99.90;;;;;;5069666;28;20307;-53
2022/06/05 09:40:44;;;;;;;9.70;8.80;;;21.60;99.90;;;;;;5074257;28;20208;-53
2022/06/05 09:43:26;;;;;;;8.43;7.73;;;21.60;99.90;;;;;;5070332;28;20292;-53
2022/06/05 09:46:08;;;;;;;9.27;8.33;;;21.50;99.90;;;;;;5073286;28;20210;-53
2022/06/05 09:48:47;;;;;;;11.10;8.43;;;21.40;99.90;;;;;;5076379;28;20229;-53
2022/06/05 09:51:16;;;;;;;9.57;8.57;;;21.40;99.90;;;;;;5072003;28;20861;-53
2022/06/05 09:54:19;;;;;;;10.17;8.70;;;21.40;99.90;;;;;;5073947;28;20406;-54
2022/06/05 10:00:18;;;;;;;11.20;9.03;;;21.50;99.90;;;;;;5078025;28;20226;-52
2022/06/05 10:02:50;;;;;;;10.10;8.67;;;21.40;99.90;;;;;;5076777;28;20226;-54
2022/06/05 10:05:45;;;;;;;9.30;8.40;;;21.30;99.90;;;;;;5076850;28;20680;-53
2022/06/05 10:08:17;;;;;;;9.57;8.63;;;21.30;99.90;;;;;;5078203;28;20202;-53
2022/06/05 10:10:46;;;;;;;10.47;9.40;;;21.40;99.90;;;;;;5073756;28;20205;-53
2022/06/05 10:13:42;;;;;;;11.63;9.47;;;21.30;99.90;;;;;;5081161;28;20202;-53
2022/06/05 10:16:18;;;;;;;10.57;9.47;;;21.20;99.90;;;;;;5076300;28;20704;-53
2022/06/05 10:19:13;;;;;;;10.37;9.37;;;21.20;99.90;;;;;;5074657;28;20282;-52
2022/06/05 10:21:50;;;;;;;9.73;8.83;;;21.30;99.90;;;;;;5074326;28;20820;-52
2022/06/05 10:24:19;;;;;;;10.30;9.40;;;21.30;99.90;;;;;;5074746;28;20192;-52
2022/06/05 10:26:48;;;;;;;9.83;8.93;;;21.40;99.90;;;;;;5074307;28;21556;-53
2022/06/05 10:29:38;;;;;;;11.80;9.37;;;21.30;99.90;;;;;;5072946;28;20352;-52
2022/06/05 10:32:19;;;;;;;12.23;9.20;;;21.40;99.90;;;;;;5076903;28;20675;-52
2022/06/05 10:34:59;;;;;;;10.63;9.60;;;21.40;99.90;;;;;;5070254;28;20706;-53
2022/06/05 10:38:15;;;;;;;10.10;9.10;;;21.50;99.90;;;;;;5076134;28;20192;-53
2022/06/05 10:40:58;;;;;;;11.13;9.93;;;21.50;99.90;;;;;;5062735;28;20214;-54
2022/06/05 10:43:28;;;;;;;10.83;9.47;;;21.40;99.90;;;;;;5072990;28;20198;-52
2022/06/05 10:46:01;;;;;;;10.53;9.53;;;21.40;99.90;;;;;;5071029;28;20210;-52
2022/06/05 10:48:50;;;;;;;11.70;10.60;;;21.30;99.90;;;;;;5072962;28;20227;-52
2022/06/05 10:51:21;;;;;;;12.00;10.80;;;21.40;99.90;;;;;;5064907;28;20248;-53
2022/06/05 10:54:07;;;;;;;12.63;9.27;;;21.40;99.90;;;;;;5065166;28;20210;-53
2022/06/05 10:56:46;;;;;;;11.03;9.30;;;21.40;99.90;;;;;;5071230;28;20206;-53
2022/06/05 10:59:16;;;;;;;13.83;11.17;;;21.40;99.90;;;;;;5061455;28;20689;-54
2022/06/05 11:01:52;;;;;;;14.97;11.37;;;21.50;99.90;;;;;;5073830;28;20231;-53
2022/06/05 11:04:35;;;;;;;11.37;10.20;;;21.40;99.90;;;;;;5076466;28;20262;-52
2022/06/05 11:07:39;;;;;;;11.73;10.50;;;21.30;99.90;;;;;;5070597;28;20195;-54
2022/06/05 11:10:17;;;;;;;12.50;11.20;;;21.40;99.90;;;;;;5062382;28;20282;-61
2022/06/05 11:16:22;;;;;;;13.27;11.47;;;21.40;99.90;;;;;;5073442;28;20312;-63
2022/06/05 11:19:03;;;;;;;12.87;11.67;;;21.30;99.90;;;;;;5062627;28;20210;-63
2022/06/05 11:21:32;;;;;;;13.47;12.17;;;21.30;99.90;;;;;;5071077;28;20536;-61
2022/06/05 11:23:59;;;;;;;12.47;11.33;;;21.20;99.90;;;;;;5074885;28;20235;-61
2022/06/05 11:26:42;;;;;;;12.37;11.13;;;21.10;99.90;;;;;;5055401;28;20208;-62
2022/06/05 11:29:15;;;;;;;13.03;11.77;;;21.20;99.90;;;;;;5074928;28;20604;-61
2022/06/05 11:32:04;;;;;;;14.63;13.13;;;21.10;99.90;;;;;;5079044;28;20195;-63
2022/06/05 11:35:12;;;;;;;13.70;12.27;;;21.30;99.90;;;;;;5071829;28;20237;-61
2022/06/05 11:37:48;;;;;;;13.90;12.03;;;21.10;99.90;;;;;;5047257;28;20203;-63
2022/06/05 11:40:31;;;;;;;13.90;12.50;;;21.20;99.90;;;;;;5064868;28;22337;-63
2022/06/05 11:43:15;;;;;;;13.53;12.33;;;21.10;99.90;;;;;;5069040;28;20533;-61
2022/06/05 11:46:00;;;;;;;12.43;11.13;;;21.10;99.90;;;;;;5066283;28;20203;-61
2022/06/05 11:48:45;;;;;;;13.43;12.07;;;21.00;99.90;;;;;;5065575;28;20213;-62
2022/06/05 11:51:21;;;;;;;15.73;13.23;;;20.80;99.90;;;;;;5058001;28;20230;-62
2022/06/05 11:54:07;;;;;;;13.80;12.43;;;20.80;99.90;;;;;;5057725;28;20206;-61
2022/06/05 11:57:32;;;;;;;21.40;15.47;;;20.70;99.90;;;;;;5070111;28;20598;-62
2022/06/05 12:00:07;;;;;;;16.30;14.10;;;20.60;99.90;;;;;;4992706;28;20639;-60
2022/06/05 12:02:59;;;;;;;19.63;14.73;;;20.50;99.90;;;;;;5067176;28;20206;-61
2022/06/05 12:05:51;;;;;;;18.07;15.27;;;20.20;99.90;;;;;;5067569;28;20574;-60
2022/06/05 12:08:30;;;;;;;16.93;15.30;;;20.10;99.90;;;;;;5064648;28;20203;-59
2022/06/05 12:11:15;;;;;;;18.30;15.63;;;20.00;99.90;;;;;;5067184;28;20632;-60
2022/06/05 12:14:02;;;;;;;17.90;16.07;;;19.90;99.90;;;;;;5070971;28;20207;-61
2022/06/05 12:16:58;;;;;;;18.27;16.40;;;19.80;99.90;;;;;;5076808;28;20298;-60
2022/06/05 12:19:39;;;;;;;18.63;16.63;;;19.80;99.90;;;;;;5055900;28;20219;-60
2022/06/05 12:22:14;;;;;;;18.23;16.43;;;19.80;99.90;;;;;;5071235;28;20219;-61
2022/06/05 12:25:22;;;;;;;17.70;15.80;;;19.70;99.90;;;;;;5077452;28;20223;-60
2022/06/05 12:28:19;;;;;;;18.60;16.70;;;19.60;99.90;;;;;;5075514;28;20203;-61
2022/06/05 12:31:17;;;;;;;20.53;17.20;;;19.50;99.90;;;;;;5071092;28;20616;-60
2022/06/05 12:34:13;;;;;;;21.10;18.23;;;19.50;99.90;;;;;;5078739;28;20222;-62
2022/06/05 12:37:15;;;;;;;19.00;17.17;;;19.70;99.90;;;;;;5069536;28;20677;-62
2022/06/05 12:39:52;;;;;;;19.80;17.30;;;19.50;99.90;;;;;;5068679;28;20199;-59
2022/06/05 12:42:41;;;;;;;19.30;17.30;;;19.50;99.90;;;;;;5071763;28;20497;-60
2022/06/05 12:45:19;;;;;;;21.40;18.57;;;19.40;99.90;;;;;;5071401;28;20396;-59
2022/06/05 12:48:06;;;;;;;20.33;18.20;;;19.30;99.90;;;;;;5078261;28;20209;-59
2022/06/05 12:50:51;;;;;;;20.83;18.47;;;19.20;99.90;;;;;;5072201;28;20291;-60
2022/06/05 12:53:42;;;;;;;21.13;19.03;;;19.20;99.90;;;;;;5064361;28;20432;-62
2022/06/05 12:56:33;;;;;;;20.83;18.57;;;19.00;99.90;;;;;;5058326;28;20254;-60
2022/06/05 12:59:34;;;;;;;22.00;19.80;;;18.90;99.90;;;;;;5077436;28;20190;-60
2022/06/05 13:02:23;;;;;;;23.20;19.97;;;18.80;99.90;;;;;;5050823;28;20199;-63
2022/06/05 13:05:01;;;;;;;21.93;19.60;;;18.90;99.90;;;;;;5081419;28;20214;-63
2022/06/05 13:07:40;;;;;;;22.90;20.13;;;19.00;99.90;;;;;;5055221;28;20282;-60
2022/06/05 13:10:38;;;;;;;24.97;21.43;;;19.10;99.90;;;;;;5061122;28;20255;-59
2022/06/05 13:13:21;;;;;;;26.53;20.47;;;19.10;99.90;;;;;;5062676;28;20273;-59
2022/06/05 13:16:03;;;;;;;24.17;21.50;;;19.10;99.90;;;;;;5079600;28;20581;-61
2022/06/05 13:18:52;;;;;;;22.47;20.10;;;19.00;99.90;;;;;;5078479;28;20253;-60
2022/06/05 13:21:23;;;;;;;22.27;19.90;;;19.00;99.90;;;;;;5083147;28;20615;-61
2022/06/05 13:24:15;;;;;;;22.03;19.73;;;18.90;99.90;;;;;;5075669;28;20221;-67
2022/06/05 13:27:14;;;;;;;22.63;20.23;;;19.00;99.90;;;;;;5075846;28;20249;-60
2022/06/05 13:30:22;;;;;;;23.23;20.73;;;19.00;99.90;;;;;;5080165;28;20263;-58
2022/06/05 13:33:10;;;;;;;23.23;19.73;;;18.90;99.90;;;;;;5013247;28;20211;-62
2022/06/05 13:35:49;;;;;;;24.33;21.83;;;19.00;99.90;;;;;;5016068;28;20217;-62
2022/06/05 13:38:31;;;;;;;23.50;21.10;;;19.00;99.90;;;;;;5021107;28;20282;-60
2022/06/05 13:41:30;;;;;;;27.30;22.83;;;19.00;99.90;;;;;;5014889;28;20209;-60